Cape Girardeau Regional Airport Cape Girardeau US
ICAO: KCGI
IATA: CGI
Category: Medium
Scheduled Services: Yes

Elevation: 342 ft
TransAlt. 18000 ft.

Airport Communications:
ASOS:120.55
MEMPHIS CNTR:133.65
CTAF:119
GND:121.6
ST LOUIS RDO:122.4
TWR:119
UNICOM:122.95

KCGI Zoom In..

If you have problems with the map follow the link
https://www.worldairports.se/pages/airport.php?
ICAO=KCGI

Runways:

(A) RW 02 length 3997 ft width 100 ft
---- / hdg 23

(B) RW 10 length 6500 ft width 150 ft
ILS 109.50 / hdg 108

(C) RW 20 length 3997 ft width 100 ft
---- / hdg 203

(D) RW 28 length 6500 ft width 150 ft
---- / hdg 288

Location; KCGI
Day. 17 / Time. 21.53 Zulu
* Altimeter: 30.31
* Temperature: 04° c. 39.2°f.
* Wind from: 110° Speed 08 kn.
Dewpoint: -05° c.
Visibility: 10 Statute Miles.
Clouds: Overcast 8000 ft.

KCGI 172153Z 11008KT 10SM OVC080 04/M05 A3031 RMK AO2 SLP266 T00391050


Wind From 110°
Speed 08 kn.

 
 
jpsmedia worldairports.se 2020   terms of use